Time;durP1;ratioP1;P1;durP2;ratioP2;P2;SDS_P1;SDS_P2;PMS_P1;PMS_P2;Temp;Humidity;BMP_temperature;BMP_pressure;BME280_temperature;BME280_humidity;BME280_pressure;Samples;Min_cycle;Max_cycle;Signal;HPM_P1;HPM_P2
2022/09/26 00:00:24;;;;;;;7.57;5.15;;;21.50;56.70;;;;;;5032935;28;20026;-64
2022/09/26 00:02:49;;;;;;;6.93;5.00;;;21.50;56.80;;;;;;5051420;28;20029;-64
2022/09/26 00:05:15;;;;;;;7.82;5.35;;;21.50;56.80;;;;;;5051264;28;20025;-65
2022/09/26 00:07:41;;;;;;;7.53;5.25;;;21.50;56.80;;;;;;5049900;28;20028;-64
2022/09/26 00:10:07;;;;;;;8.02;5.13;;;21.50;56.70;;;;;;5051215;28;20770;-64
2022/09/26 00:12:32;;;;;;;9.05;5.40;;;21.50;56.70;;;;;;5033142;28;20039;-64
2022/09/26 00:14:58;;;;;;;8.30;4.85;;;21.50;56.80;;;;;;5050978;28;20035;-65
2022/09/26 00:17:24;;;;;;;6.95;4.50;;;21.50;56.80;;;;;;5051099;28;20025;-64
2022/09/26 00:19:49;;;;;;;7.38;4.97;;;21.50;56.80;;;;;;5050976;28;20033;-64
2022/09/26 00:22:15;;;;;;;6.72;4.55;;;21.50;56.80;;;;;;5051009;28;20437;-64
2022/09/26 00:24:40;;;;;;;7.63;5.35;;;21.50;56.70;;;;;;5050911;28;20037;-64
2022/09/26 00:27:06;;;;;;;6.55;4.88;;;21.40;56.70;;;;;;5050851;28;20488;-65
2022/09/26 00:29:31;;;;;;;6.20;4.47;;;21.50;56.70;;;;;;5050935;28;20107;-64
2022/09/26 00:31:57;;;;;;;7.10;4.90;;;21.40;56.70;;;;;;5050560;28;20029;-64
2022/09/26 00:34:23;;;;;;;5.65;4.05;;;21.40;56.70;;;;;;5050873;28;20033;-64
2022/09/26 00:36:48;;;;;;;6.82;4.40;;;21.40;56.70;;;;;;5050972;28;20071;-64
2022/09/26 00:39:15;;;;;;;7.43;4.43;;;21.40;56.70;;;;;;5050783;28;20581;-65
2022/09/26 00:41:41;;;;;;;6.30;4.32;;;21.40;56.70;;;;;;5050824;28;20025;-65
2022/09/26 00:44:41;;;;;;;6.75;4.30;;;21.40;56.70;;;;;;5050778;28;20021;-65
2022/09/26 00:47:18;;;;;;;6.20;4.30;;;21.40;56.70;;;;;;5050079;28;20025;-65
2022/09/26 00:49:44;;;;;;;5.78;4.10;;;21.40;56.70;;;;;;5050716;28;20036;-65
2022/09/26 00:52:19;;;;;;;6.32;4.13;;;21.40;56.80;;;;;;5049236;28;20032;-64
2022/09/26 00:54:49;;;;;;;5.95;4.22;;;21.30;56.70;;;;;;5050364;28;20025;-64
2022/09/26 00:57:21;;;;;;;6.95;4.43;;;21.30;56.70;;;;;;5050394;28;20502;-65
2022/09/26 00:59:53;;;;;;;6.45;4.32;;;21.30;56.70;;;;;;5049571;28;20770;-66
2022/09/26 01:02:18;;;;;;;5.75;4.22;;;21.30;56.70;;;;;;5049410;28;20388;-64
2022/09/26 01:04:46;;;;;;;5.93;4.32;;;21.30;56.70;;;;;;5050523;28;20025;-65
2022/09/26 01:07:18;;;;;;;6.60;4.72;;;21.30;56.70;;;;;;5032545;28;20025;-65
2022/09/26 01:09:44;;;;;;;6.45;4.40;;;21.30;57.30;;;;;;5049679;28;20613;-66
2022/09/26 01:12:11;;;;;;;6.25;4.30;;;21.30;56.80;;;;;;5050510;28;20033;-66
2022/09/26 01:14:39;;;;;;;6.20;4.28;;;21.30;56.80;;;;;;5050406;28;20029;-65
2022/09/26 01:17:06;;;;;;;6.70;4.35;;;21.30;56.80;;;;;;5050330;28;20067;-65
2022/09/26 01:19:46;;;;;;;5.40;3.95;;;21.30;57.30;;;;;;5049717;28;20091;-66
2022/09/26 01:22:41;;;;;;;5.70;4.00;;;21.30;56.80;;;;;;5050288;28;20036;-65
2022/09/26 01:25:26;;;;;;;6.50;4.03;;;21.20;56.80;;;;;;5050676;28;20422;-65
2022/09/26 01:28:05;;;;;;;6.55;4.18;;;21.20;56.80;;;;;;5050989;28;20024;-65
2022/09/26 01:30:37;;;;;;;6.50;3.85;;;21.20;56.80;;;;;;5049811;28;20068;-65
2022/09/26 01:33:14;;;;;;;6.00;3.78;;;21.20;56.80;;;;;;5033961;28;20036;-65
2022/09/26 01:35:54;;;;;;;5.93;4.70;;;21.20;56.80;;;;;;5033071;28;20025;-65
2022/09/26 01:38:34;;;;;;;;;;;21.20;56.80;;;;;;5034384;28;20385;-66
2022/09/26 01:41:08;;;;;;;5.70;3.50;;;21.20;56.80;;;;;;5033855;28;19956;-64
2022/09/26 01:43:47;;;;;;;6.25;4.35;;;21.20;56.80;;;;;;5033880;28;20463;-64
2022/09/26 01:46:44;;;;;;;5.82;3.88;;;21.20;56.80;;;;;;5033745;28;20104;-64
2022/09/26 01:49:38;;;;;;;5.35;3.88;;;21.20;56.80;;;;;;5001564;28;20054;-64
2022/09/26 01:52:18;;;;;;;5.10;3.58;;;21.20;56.80;;;;;;5031296;28;20073;-65
2022/09/26 01:55:16;;;;;;;;;;;21.10;56.80;;;;;;5034066;28;20017;-65
2022/09/26 01:57:53;;;;;;;5.70;3.80;;;21.10;56.80;;;;;;4993236;28;19919;-64
2022/09/26 02:00:19;;;;;;;5.78;4.00;;;21.10;56.80;;;;;;5034423;28;20034;-64
2022/09/26 02:02:47;;;;;;;5.57;4.00;;;21.10;56.80;;;;;;5053384;28;20029;-64
2022/09/26 02:05:17;;;;;;;5.95;4.00;;;21.10;56.80;;;;;;5053494;28;20017;-65
2022/09/26 02:08:12;;;;;;;5.85;3.78;;;21.10;56.80;;;;;;5053475;28;20032;-65
2022/09/26 02:10:48;;;;;;;5.20;3.80;;;21.10;56.80;;;;;;5053226;28;20385;-64
2022/09/26 02:13:20;;;;;;;5.78;3.97;;;21.10;56.80;;;;;;5053362;28;20021;-64
2022/09/26 02:15:51;;;;;;;5.47;4.00;;;21.10;56.80;;;;;;5052100;28;20071;-64
2022/09/26 02:18:30;;;;;;;6.03;3.88;;;21.10;56.80;;;;;;5053208;28;20099;-64
2022/09/26 02:21:06;;;;;;;6.43;4.30;;;21.10;56.80;;;;;;5052800;28;20030;-64
2022/09/26 02:23:32;;;;;;;5.88;3.63;;;21.10;56.80;;;;;;5052888;28;20755;-64
2022/09/26 02:25:58;;;;;;;7.03;4.47;;;21.10;56.80;;;;;;5053265;28;20112;-64
2022/09/26 02:28:24;;;;;;;5.20;3.83;;;21.10;56.80;;;;;;5053182;28;20479;-64
2022/09/26 02:30:52;;;;;;;5.30;3.75;;;21.10;56.90;;;;;;5046333;28;20025;-64
2022/09/26 02:33:18;;;;;;;6.00;3.95;;;21.00;56.80;;;;;;5033147;28;20457;-63
2022/09/26 02:35:53;;;;;;;5.72;3.80;;;21.10;56.90;;;;;;5033115;28;20040;-65
2022/09/26 02:38:20;;;;;;;6.15;4.13;;;21.10;56.90;;;;;;5031597;28;20558;-64
2022/09/26 02:40:50;;;;;;;6.57;4.07;;;21.00;56.80;;;;;;5031968;28;20064;-64
2022/09/26 02:43:33;;;;;;;5.82;4.00;;;21.00;56.80;;;;;;5032889;28;20489;-64
2022/09/26 02:46:01;;;;;;;5.53;3.72;;;21.00;56.90;;;;;;5032955;28;20079;-65
2022/09/26 02:48:44;;;;;;;4.97;3.65;;;21.00;57.10;;;;;;5032234;28;20084;-64
2022/09/26 02:51:34;;;;;;;4.72;3.78;;;21.00;56.80;;;;;;5032823;28;20025;-65
2022/09/26 02:54:14;;;;;;;4.78;3.42;;;21.00;56.80;;;;;;5032457;28;20362;-65
2022/09/26 02:57:04;;;;;;;5.90;3.58;;;21.00;56.80;;;;;;5032126;28;20025;-63
2022/09/26 02:59:48;;;;;;;;;;;21.00;56.80;;;;;;5032869;28;20025;-64
2022/09/26 03:02:19;;;;;;;4.82;3.28;;;21.00;56.90;;;;;;5031822;28;20364;-63
2022/09/26 03:05:19;;;;;;;4.88;3.45;;;21.00;56.80;;;;;;5032053;28;20022;-64
2022/09/26 03:07:56;;;;;;;5.55;3.72;;;21.00;56.80;;;;;;5019824;28;20029;-64
2022/09/26 03:10:25;;;;;;;5.03;3.55;;;21.00;56.90;;;;;;5032508;28;20025;-65
2022/09/26 03:12:51;;;;;;;5.35;3.45;;;21.00;56.90;;;;;;5032436;28;20037;-64
2022/09/26 03:15:18;;;;;;;5.13;3.38;;;21.00;56.90;;;;;;5032243;28;20493;-64
2022/09/26 03:17:51;;;;;;;5.07;3.50;;;20.90;56.80;;;;;;5032262;28;20113;-64
2022/09/26 03:20:19;;;;;;;5.47;3.30;;;21.00;56.90;;;;;;5032176;28;20095;-65
2022/09/26 03:22:45;;;;;;;5.05;3.97;;;20.90;56.80;;;;;;5030498;28;20131;-65
2022/09/26 03:25:15;;;;;;;5.60;3.50;;;20.90;56.80;;;;;;5032180;28;20045;-65
2022/09/26 03:27:44;;;;;;;4.93;3.42;;;20.90;56.90;;;;;;5032167;28;20132;-65
2022/09/26 03:30:12;;;;;;;4.38;3.22;;;20.90;56.80;;;;;;5031753;28;20036;-65
2022/09/26 03:32:39;;;;;;;4.50;3.10;;;20.90;56.80;;;;;;5031403;28;20029;-65
2022/09/26 03:35:05;;;;;;;4.65;3.40;;;20.90;56.80;;;;;;5031288;28;20025;-65
2022/09/26 03:37:33;;;;;;;5.55;3.58;;;20.90;56.80;;;;;;5031970;28;20485;-65
2022/09/26 03:40:01;;;;;;;5.32;3.40;;;20.90;56.80;;;;;;5031873;28;20200;-64
2022/09/26 03:42:27;;;;;;;4.65;3.30;;;20.90;56.80;;;;;;5031966;28;20030;-65
2022/09/26 03:44:52;;;;;;;4.75;3.13;;;20.90;56.80;;;;;;5031694;28;20083;-64
2022/09/26 03:47:18;;;;;;;5.07;3.50;;;20.90;56.80;;;;;;5031861;28;20036;-64
2022/09/26 03:49:43;;;;;;;4.78;3.40;;;20.90;56.80;;;;;;5032018;28;20041;-64
2022/09/26 03:52:10;;;;;;;4.63;3.55;;;20.90;56.80;;;;;;5031368;28;20040;-64
2022/09/26 03:54:36;;;;;;;5.13;3.45;;;20.90;56.80;;;;;;5031450;28;20500;-64
2022/09/26 03:57:02;;;;;;;5.90;3.60;;;20.90;56.80;;;;;;5031554;28;20017;-64
2022/09/26 03:59:27;;;;;;;4.70;3.38;;;20.90;56.80;;;;;;5031523;28;20034;-64
2022/09/26 04:01:53;;;;;;;4.22;3.17;;;20.90;56.80;;;;;;5031070;28;20405;-65
2022/09/26 04:04:19;;;;;;;5.25;3.40;;;20.90;56.80;;;;;;5031534;28;20029;-64
2022/09/26 04:06:44;;;;;;;5.68;3.70;;;20.90;56.80;;;;;;5005430;28;20044;-65
2022/09/26 04:09:10;;;;;;;4.88;3.38;;;20.90;56.80;;;;;;5031368;28;20556;-65
2022/09/26 04:11:36;;;;;;;4.32;3.42;;;20.90;56.80;;;;;;5031541;28;20121;-66
2022/09/26 04:14:02;;;;;;;4.47;2.97;;;20.90;56.80;;;;;;5031274;28;20128;-64
2022/09/26 04:16:28;;;;;;;4.05;2.95;;;20.90;56.80;;;;;;5030881;28;20057;-65
2022/09/26 04:18:57;;;;;;;4.78;2.90;;;20.90;56.80;;;;;;5031094;28;20017;-65
2022/09/26 04:21:25;;;;;;;4.95;3.20;;;20.80;56.80;;;;;;5031201;28;20032;-64
2022/09/26 04:23:51;;;;;;;4.35;3.08;;;20.90;56.90;;;;;;5030537;28;20453;-64
2022/09/26 04:26:19;;;;;;;3.80;2.88;;;20.80;56.80;;;;;;5030545;28;20421;-65
2022/09/26 04:28:45;;;;;;;4.07;2.65;;;20.80;56.90;;;;;;5031041;28;20109;-65
2022/09/26 04:31:11;;;;;;;4.45;3.20;;;20.80;56.80;;;;;;5030551;28;20401;-65
2022/09/26 04:33:38;;;;;;;4.38;3.03;;;20.80;56.90;;;;;;5030869;28;20029;-64
2022/09/26 04:36:08;;;;;;;4.03;3.00;;;20.80;56.90;;;;;;5030920;28;20021;-64
2022/09/26 04:38:33;;;;;;;;;;;20.80;56.90;;;;;;5031221;28;20397;-64
2022/09/26 04:41:06;;;;;;;4.20;2.50;;;20.80;57.00;;;;;;5030821;28;19909;-64
2022/09/26 04:43:33;;;;;;;3.92;2.67;;;20.80;56.90;;;;;;5029877;28;20057;-64
2022/09/26 04:45:59;;;;;;;4.20;2.85;;;20.80;56.90;;;;;;5030773;28;20029;-64
2022/09/26 04:48:25;;;;;;;4.63;2.90;;;20.80;56.90;;;;;;5030733;28;20084;-64
2022/09/26 04:50:50;;;;;;;4.47;2.88;;;20.80;57.00;;;;;;5030788;28;20084;-64
2022/09/26 04:53:18;;;;;;;4.88;3.00;;;20.80;57.00;;;;;;5030616;28;20358;-64
2022/09/26 04:55:47;;;;;;;4.07;2.63;;;20.80;57.00;;;;;;5030741;28;20482;-64
2022/09/26 04:58:15;;;;;;;4.25;2.80;;;20.80;57.00;;;;;;5030651;28;20018;-64
2022/09/26 05:00:46;;;;;;;3.92;2.60;;;20.80;57.00;;;;;;5034443;28;20029;-64
2022/09/26 05:03:15;;;;;;;3.75;2.75;;;20.80;57.00;;;;;;5051853;28;20060;-64
2022/09/26 05:05:49;;;;;;;3.80;2.70;;;20.80;57.00;;;;;;5054408;28;20053;-64
2022/09/26 05:08:15;;;;;;;3.40;2.40;;;20.80;56.90;;;;;;5053178;28;20501;-65
2022/09/26 05:10:42;;;;;;;4.25;2.63;;;20.80;56.90;;;;;;5054539;28;20032;-64
2022/09/26 05:13:08;;;;;;;4.22;2.63;;;20.80;57.00;;;;;;5054494;28;20064;-64
2022/09/26 05:15:38;;;;;;;4.32;2.88;;;20.80;56.90;;;;;;5054400;28;20045;-64
2022/09/26 05:18:06;;;;;;;3.90;2.90;;;20.80;57.10;;;;;;5054761;28;20021;-64
2022/09/26 05:20:33;;;;;;;4.78;2.83;;;20.90;57.30;;;;;;5053531;28;20427;-64
2022/09/26 05:23:03;;;;;;;3.90;2.80;;;20.90;57.20;;;;;;5054426;28;20024;-64
2022/09/26 05:28:18;;;;;;;;;;;21.10;57.00;;;;;;5054934;28;20594;-65
2022/09/26 05:30:43;;;;;;;4.70;3.08;;;21.20;56.70;;;;;;5053747;28;19917;-64
2022/09/26 05:33:11;;;;;;;5.13;3.55;;;21.30;56.50;;;;;;5054201;28;20393;-65
2022/09/26 05:35:37;;;;;;;4.28;3.00;;;21.40;56.30;;;;;;5054099;28;20036;-65
2022/09/26 05:38:03;;;;;;;4.28;3.15;;;21.50;56.10;;;;;;5054238;28;20401;-65
2022/09/26 05:43:14;;;;;;;5.80;3.55;;;21.70;55.60;;;;;;5052852;28;20100;-65
2022/09/26 05:45:40;;;;;;;5.03;3.42;;;21.80;55.40;;;;;;5036023;28;20074;-65
2022/09/26 05:48:06;;;;;;;4.53;3.53;;;22.00;55.00;;;;;;5053918;28;20449;-65
2022/09/26 05:50:32;;;;;;;4.65;3.33;;;22.10;54.70;;;;;;5053905;28;20468;-65
2022/09/26 05:52:58;;;;;;;4.95;3.17;;;22.20;54.40;;;;;;5053732;28;20511;-64
2022/09/26 05:55:25;;;;;;;5.22;3.30;;;22.30;54.10;;;;;;5054085;28;20025;-65
2022/09/26 05:57:57;;;;;;;4.65;3.22;;;22.40;54.00;;;;;;5053973;28;20028;-64
2022/09/26 06:00:26;;;;;;;4.13;2.88;;;22.50;54.00;;;;;;5053190;28;20025;-65
2022/09/26 06:02:56;;;;;;;4.05;2.97;;;22.50;53.60;;;;;;5053580;28;20025;-65
2022/09/26 06:05:23;;;;;;;5.13;3.30;;;22.50;53.80;;;;;;5053061;28;20472;-64
2022/09/26 06:07:49;;;;;;;4.10;2.88;;;22.80;53.80;;;;;;5053528;28;20043;-65
2022/09/26 06:10:15;;;;;;;3.80;2.75;;;23.10;53.30;;;;;;5053387;28;20028;-65
2022/09/26 06:12:41;;;;;;;2.42;1.65;;;23.60;52.80;;;;;;5053519;28;20143;-65
2022/09/26 06:15:08;;;;;;;2.20;1.40;;;23.70;52.70;;;;;;5040414;28;20119;-65
2022/09/26 06:17:34;;;;;;;2.50;1.60;;;23.50;53.00;;;;;;5052730;28;20059;-65
2022/09/26 06:20:00;;;;;;;3.13;2.20;;;23.40;53.30;;;;;;5053234;28;20036;-64
2022/09/26 06:22:25;;;;;;;3.58;2.50;;;23.60;53.50;;;;;;5053259;28;20341;-65
2022/09/26 06:24:51;;;;;;;2.85;1.80;;;23.90;52.80;;;;;;5053101;28;20025;-64
2022/09/26 06:27:17;;;;;;;2.20;1.45;;;24.20;52.50;;;;;;5053222;28;20116;-65
2022/09/26 06:29:43;;;;;;;2.22;1.60;;;24.10;52.80;;;;;;5053109;28;20507;-65
2022/09/26 06:32:08;;;;;;;3.30;1.80;;;24.00;53.20;;;;;;5052560;28;20041;-65
2022/09/26 06:34:34;;;;;;;3.72;2.60;;;23.90;53.30;;;;;;5053119;28;20096;-65
2022/09/26 06:37:00;;;;;;;3.22;2.08;;;24.20;52.90;;;;;;5052848;28;20029;-65
2022/09/26 06:39:34;;;;;;;2.55;1.83;;;24.40;52.60;;;;;;5034800;28;20407;-65
2022/09/26 06:42:01;;;;;;;2.30;1.70;;;24.30;52.70;;;;;;5052908;28;20460;-64
2022/09/26 06:44:27;;;;;;;3.03;2.10;;;24.10;52.70;;;;;;5052549;28;20471;-64
2022/09/26 06:46:52;;;;;;;3.50;2.45;;;24.20;53.20;;;;;;5052996;28;20017;-64
2022/09/26 06:49:18;;;;;;;3.40;2.20;;;24.40;52.40;;;;;;5052805;28;20091;-64
2022/09/26 06:51:47;;;;;;;2.67;1.80;;;24.70;52.20;;;;;;5052628;28;20025;-64
2022/09/26 06:54:13;;;;;;;2.83;1.67;;;24.60;51.50;;;;;;5052676;28;20040;-65
2022/09/26 06:56:39;;;;;;;2.92;2.03;;;24.40;51.50;;;;;;5052608;28;20384;-66
2022/09/26 06:59:05;;;;;;;4.40;2.55;;;24.40;52.10;;;;;;5052332;28;20436;-64
2022/09/26 07:01:31;;;;;;;3.50;2.67;;;24.60;51.70;;;;;;5040666;28;20037;-65
2022/09/26 07:03:57;;;;;;;3.00;2.00;;;24.90;50.90;;;;;;5032344;28;20022;-65
2022/09/26 07:06:23;;;;;;;3.13;1.73;;;25.20;50.70;;;;;;5032238;28;20021;-64
2022/09/26 07:08:51;;;;;;;2.78;1.73;;;25.10;50.10;;;;;;5029735;28;20547;-65
2022/09/26 07:11:16;;;;;;;2.95;1.90;;;24.90;50.20;;;;;;5032159;28;20504;-64
2022/09/26 07:13:44;;;;;;;3.65;2.25;;;24.80;50.90;;;;;;5032384;28;20038;-65
2022/09/26 07:16:11;;;;;;;3.17;2.28;;;24.90;50.70;;;;;;5032073;28;20037;-64
2022/09/26 07:18:38;;;;;;;3.30;2.22;;;25.20;50.10;;;;;;5032095;28;20033;-64
2022/09/26 07:21:05;;;;;;;2.30;1.67;;;25.40;50.00;;;;;;5032323;28;20078;-64
2022/09/26 07:23:30;;;;;;;2.17;1.50;;;25.40;49.40;;;;;;5031973;28;20056;-65
2022/09/26 07:25:56;;;;;;;3.05;2.10;;;25.20;49.90;;;;;;5031398;28;20390;-65
2022/09/26 07:28:23;;;;;;;3.65;2.60;;;25.10;50.40;;;;;;5032154;28;20057;-64
2022/09/26 07:30:49;;;;;;;3.90;2.70;;;25.20;50.30;;;;;;5037805;28;20350;-65
2022/09/26 07:33:14;;;;;;;4.20;3.20;;;25.10;48.50;;;;;;5051749;28;20246;-64
2022/09/26 07:35:43;;;;;;;3.60;2.47;;;25.00;48.30;;;;;;5033888;28;20056;-65
2022/09/26 07:38:11;;;;;;;2.80;2.03;;;24.90;48.80;;;;;;5035576;28;20026;-65
2022/09/26 07:40:38;;;;;;;2.53;1.90;;;24.80;49.10;;;;;;5050910;28;20037;-64
2022/09/26 07:43:04;;;;;;;2.88;1.90;;;24.70;49.30;;;;;;5051717;28;20063;-64
2022/09/26 11:15:13;;;;;;;3.40;2.10;;;23.40;52.90;;;;;;5046951;28;20163;-66
2022/09/26 11:17:50;;;;;;;3.40;1.92;;;23.40;52.90;;;;;;5051260;28;20740;-66
2022/09/26 11:20:28;;;;;;;2.90;2.00;;;23.40;53.10;;;;;;5051295;28;20094;-66
2022/09/26 11:23:15;;;;;;;3.20;2.00;;;23.40;53.20;;;;;;5052131;28;20035;-66
2022/09/26 11:25:53;;;;;;;4.25;1.90;;;23.40;53.20;;;;;;5051957;28;20025;-66
2022/09/26 11:28:45;;;;;;;3.97;2.17;;;23.40;53.10;;;;;;5051419;28;20025;-65
2022/09/26 11:31:28;;;;;;;3.15;1.90;;;23.40;53.10;;;;;;5050905;28;20500;-65
2022/09/26 11:33:58;;;;;;;4.45;1.95;;;23.50;53.00;;;;;;5051473;28;20029;-67
2022/09/26 11:36:30;;;;;;;;;;;23.50;53.00;;;;;;5052364;28;20422;-65
2022/09/26 11:38:56;;;;;;;2.80;1.90;;;23.50;52.90;;;;;;5050267;28;20006;-66
2022/09/26 11:41:37;;;;;;;3.50;1.90;;;23.50;53.00;;;;;;5051875;28;20021;-66
2022/09/26 11:44:20;;;;;;;4.05;1.88;;;23.50;52.90;;;;;;5051622;28;20431;-66
2022/09/26 11:47:01;;;;;;;3.85;2.17;;;23.50;53.00;;;;;;5050427;28;20029;-66
2022/09/26 11:49:32;;;;;;;2.90;1.95;;;23.50;53.00;;;;;;5051132;28;20167;-66
2022/09/26 11:52:17;;;;;;;2.45;1.75;;;23.50;53.00;;;;;;5049996;28;20029;-66
2022/09/26 11:55:01;;;;;;;2.85;1.77;;;23.50;52.90;;;;;;5050443;28;20028;-66
2022/09/26 11:57:46;;;;;;;3.90;2.30;;;23.50;53.00;;;;;;5049270;28;20071;-65
2022/09/26 12:00:23;;;;;;;2.67;1.85;;;23.50;52.90;;;;;;5049169;28;20372;-66
2022/09/26 12:03:07;;;;;;;2.97;1.80;;;23.50;52.80;;;;;;5030965;28;20525;-66
2022/09/26 12:05:44;;;;;;;3.70;1.92;;;23.50;52.80;;;;;;5031299;28;20025;-66
2022/09/26 12:08:29;;;;;;;2.38;1.60;;;23.50;52.80;;;;;;5030210;28;20030;-66
2022/09/26 12:11:23;;;;;;;2.65;1.80;;;23.50;52.90;;;;;;5031384;28;20107;-66
2022/09/26 12:14:00;;;;;;;2.72;1.83;;;23.50;52.90;;;;;;5031009;28;20773;-66
2022/09/26 12:16:47;;;;;;;3.30;2.03;;;23.60;52.90;;;;;;5030261;28;20407;-67
2022/09/26 12:19:22;;;;;;;2.80;1.75;;;23.60;52.80;;;;;;5029767;28;20551;-66
2022/09/26 12:22:27;;;;;;;2.55;1.63;;;23.60;52.80;;;;;;5030905;28;20029;-66
2022/09/26 12:25:06;;;;;;;3.20;1.98;;;23.50;52.80;;;;;;5012721;28;20032;-66
2022/09/26 12:27:50;;;;;;;3.35;2.08;;;23.60;52.90;;;;;;5030594;28;20075;-66
2022/09/26 12:30:20;;;;;;;2.88;1.80;;;23.60;52.90;;;;;;5031104;28;20040;-66
2022/09/26 12:33:20;;;;;;;2.72;1.80;;;23.60;52.90;;;;;;5050538;28;20074;-67
2022/09/26 12:36:07;;;;;;;2.80;1.70;;;23.60;52.90;;;;;;5049209;28;20059;-67
2022/09/26 12:38:44;;;;;;;2.65;1.80;;;23.60;52.90;;;;;;5050749;28;20064;-67
2022/09/26 12:41:40;;;;;;;2.97;1.90;;;23.60;52.90;;;;;;5030841;28;20017;-66
2022/09/26 12:44:50;;;;;;;3.28;1.75;;;23.60;52.90;;;;;;5049539;28;20024;-67
2022/09/26 12:47:42;;;;;;;2.70;1.80;;;23.60;52.90;;;;;;5009739;28;20533;-66
2022/09/26 12:50:29;;;;;;;2.72;1.70;;;23.60;52.90;;;;;;5049830;28;20442;-67
2022/09/26 12:52:55;;;;;;;2.60;1.60;;;23.70;52.90;;;;;;5050287;28;20048;-67
2022/09/26 12:55:47;;;;;;;2.60;1.73;;;23.60;53.00;;;;;;5050629;28;20058;-67
2022/09/26 12:58:54;;;;;;;2.53;1.50;;;23.60;52.90;;;;;;5049932;28;20052;-67
2022/09/26 13:01:48;;;;;;;3.55;1.60;;;23.60;52.90;;;;;;4971015;28;20060;-67
2022/09/26 13:04:37;;;;;;;2.20;1.50;;;23.60;52.90;;;;;;5049711;28;20382;-67
2022/09/26 13:07:17;;;;;;;3.00;1.40;;;23.70;52.70;;;;;;5049736;28;20040;-67
2022/09/26 13:10:07;;;;;;;2.63;1.60;;;23.70;52.60;;;;;;5048552;28;20033;-67
2022/09/26 13:12:44;;;;;;;3.08;1.65;;;23.70;52.50;;;;;;5049933;28;20032;-67
2022/09/26 13:15:31;;;;;;;2.63;1.52;;;23.70;52.50;;;;;;5048694;28;20037;-67
2022/09/26 13:18:19;;;;;;;2.83;1.70;;;23.70;52.50;;;;;;5050404;28;20036;-67
2022/09/26 13:20:52;;;;;;;2.92;1.70;;;23.70;52.50;;;;;;5049517;28;20491;-66
2022/09/26 13:23:41;;;;;;;2.90;1.58;;;23.70;52.40;;;;;;5050407;28;20539;-66
2022/09/26 13:26:15;;;;;;;;;;;23.70;52.40;;;;;;5058512;28;20334;-66
2022/09/26 13:28:54;;;;;;;2.42;1.60;;;23.70;52.40;;;;;;5053920;28;20376;-66
2022/09/26 13:31:34;;;;;;;1.98;1.50;;;23.70;52.30;;;;;;5054727;28;20376;-66
2022/09/26 13:34:12;;;;;;;2.53;1.50;;;23.70;52.30;;;;;;5054081;28;20029;-66
2022/09/26 13:36:40;;;;;;;2.65;1.60;;;23.70;52.30;;;;;;5052818;28;20468;-65
2022/09/26 13:39:25;;;;;;;3.45;1.50;;;23.70;52.30;;;;;;5052736;28;20051;-68
2022/09/26 13:42:00;;;;;;;2.67;1.77;;;23.70;52.30;;;;;;5054010;28;20380;-68
2022/09/26 13:44:38;;;;;;;3.53;1.77;;;23.70;52.40;;;;;;5053177;28;20028;-67
2022/09/26 13:47:28;;;;;;;4.20;1.47;;;23.70;52.50;;;;;;5031184;28;20025;-68
2022/09/26 13:50:00;;;;;;;2.28;1.50;;;23.70;52.40;;;;;;5053173;28;20108;-68
2022/09/26 13:52:56;;;;;;;3.30;1.73;;;23.70;52.30;;;;;;5053852;28;20334;-67
2022/09/26 13:55:24;;;;;;;2.47;1.40;;;23.70;52.40;;;;;;5053877;28;20514;-66
2022/09/26 13:58:02;;;;;;;2.92;1.40;;;23.80;52.40;;;;;;5053214;28;20028;-67
2022/09/26 14:00:40;;;;;;;3.03;1.45;;;23.70;52.40;;;;;;5051416;28;20029;-66
2022/09/26 14:03:15;;;;;;;2.65;1.60;;;23.80;52.50;;;;;;5053244;28;20052;-67
2022/09/26 14:05:44;;;;;;;2.70;1.50;;;23.80;52.50;;;;;;5053651;28;20075;-67
2022/09/26 14:11:31;;;;;;;2.70;1.60;;;23.80;52.60;;;;;;5053535;28;20032;-66
2022/09/26 14:14:18;;;;;;;2.88;1.50;;;23.80;52.60;;;;;;5051915;28;20036;-67
2022/09/26 14:16:51;;;;;;;2.95;1.20;;;23.80;52.50;;;;;;5053198;28;20017;-67
2022/09/26 14:19:28;;;;;;;2.17;1.33;;;23.80;52.50;;;;;;5053083;28;20082;-67
2022/09/26 14:22:23;;;;;;;2.17;1.23;;;23.80;52.60;;;;;;5053221;28;20025;-68
2022/09/26 14:24:50;;;;;;;3.00;1.40;;;23.80;52.50;;;;;;5017706;28;20472;-68
2022/09/26 14:27:35;;;;;;;2.00;1.30;;;23.80;52.60;;;;;;5053258;28;20124;-68
2022/09/26 14:30:23;;;;;;;2.45;1.55;;;23.80;52.60;;;;;;5051449;28;20067;-68
2022/09/26 14:32:53;;;;;;;1.70;1.23;;;23.80;52.60;;;;;;5053251;28;20544;-66
2022/09/26 14:35:33;;;;;;;2.67;1.42;;;23.80;52.60;;;;;;5053100;28;20036;-68
2022/09/26 14:38:08;;;;;;;2.75;1.30;;;23.80;52.50;;;;;;5052371;28;20606;-68
2022/09/26 14:40:36;;;;;;;2.42;1.40;;;23.80;52.50;;;;;;5051843;28;20083;-69
2022/09/26 14:43:16;;;;;;;2.08;1.48;;;23.80;52.50;;;;;;5052837;28;20021;-68
2022/09/26 14:45:46;;;;;;;3.25;1.30;;;23.80;52.50;;;;;;5052679;28;20536;-69
2022/09/26 14:48:20;;;;;;;2.05;1.30;;;23.80;52.50;;;;;;5052842;28;20021;-68
2022/09/26 14:50:51;;;;;;;2.08;1.30;;;23.80;52.50;;;;;;5052785;28;20064;-68
2022/09/26 14:53:38;;;;;;;2.58;1.70;;;23.80;52.50;;;;;;5052073;28;20025;-68
2022/09/26 14:56:08;;;;;;;3.10;1.40;;;23.80;52.50;;;;;;5052723;28;20044;-68
2022/09/26 14:58:37;;;;;;;2.25;1.20;;;23.80;52.60;;;;;;5052209;28;20044;-68
2022/09/26 15:01:05;;;;;;;2.47;1.40;;;23.80;52.50;;;;;;5034220;28;20086;-68
2022/09/26 15:03:33;;;;;;;2.47;1.40;;;23.80;52.60;;;;;;5052590;28;20286;-69
2022/09/26 15:06:12;;;;;;;2.20;1.20;;;23.80;52.70;;;;;;5052535;28;20025;-68
2022/09/26 15:08:38;;;;;;;2.50;1.38;;;23.80;52.60;;;;;;5052318;28;20101;-69
2022/09/26 15:11:05;;;;;;;2.50;1.40;;;23.80;52.70;;;;;;5051630;28;20120;-68
2022/09/26 15:13:41;;;;;;;2.63;1.48;;;23.80;52.70;;;;;;5052473;28;20392;-68
2022/09/26 15:16:36;;;;;;;2.70;1.23;;;23.80;52.60;;;;;;5050649;28;20494;-68
2022/09/26 15:19:13;;;;;;;2.67;1.52;;;23.80;52.50;;;;;;5051540;28;20173;-69
2022/09/26 15:21:42;;;;;;;2.28;1.25;;;23.80;52.50;;;;;;5052170;28;20032;-68
2022/09/26 15:24:23;;;;;;;;;;;23.80;52.50;;;;;;5052615;28;20376;-68
2022/09/26 15:26:49;;;;;;;2.10;1.30;;;23.80;52.50;;;;;;5051837;28;19912;-67
2022/09/26 15:29:16;;;;;;;2.05;1.30;;;23.90;52.50;;;;;;5052137;28;20028;-69
2022/09/26 15:31:43;;;;;;;2.55;1.42;;;23.80;52.40;;;;;;5052137;28;20057;-68
2022/09/26 15:34:18;;;;;;;3.47;1.40;;;23.80;52.30;;;;;;5052190;28;20044;-67
2022/09/26 15:36:54;;;;;;;2.58;1.45;;;23.90;52.40;;;;;;5050948;28;20029;-68
2022/09/26 15:39:32;;;;;;;1.85;1.30;;;23.90;52.40;;;;;;5051961;28;20492;-69
2022/09/26 15:44:58;;;;;;;2.10;1.30;;;23.90;52.40;;;;;;5051420;28;20071;-68
2022/09/26 15:47:26;;;;;;;1.90;1.10;;;23.90;52.40;;;;;;5049550;28;20033;-68
2022/09/26 15:50:19;;;;;;;1.83;1.00;;;23.90;52.40;;;;;;5053422;28;20029;-65
2022/09/26 15:53:00;;;;;;;1.90;1.35;;;23.90;52.50;;;;;;5053916;28;20425;-68
2022/09/26 15:56:12;;;;;;;1.70;1.30;;;23.90;52.50;;;;;;5050995;28;20033;-68
2022/09/26 15:58:59;;;;;;;2.42;1.30;;;23.90;52.50;;;;;;5045960;28;20048;-67
2022/09/26 16:01:28;;;;;;;1.58;1.15;;;23.80;52.30;;;;;;5051924;28;20527;-68
2022/09/26 16:04:01;;;;;;;2.38;1.30;;;23.80;52.30;;;;;;5051380;28;20111;-67
2022/09/26 16:06:34;;;;;;;1.63;1.17;;;23.70;52.30;;;;;;5050706;28;20493;-68
2022/09/26 16:09:17;;;;;;;2.50;1.38;;;23.80;52.30;;;;;;5050872;28;20484;-68
2022/09/26 16:11:47;;;;;;;1.42;1.00;;;23.70;52.30;;;;;;5050831;28;20422;-68
2022/09/26 16:14:28;;;;;;;2.17;1.20;;;23.70;52.40;;;;;;5050527;28;20049;-67
2022/09/26 16:17:17;;;;;;;2.13;1.20;;;23.70;52.50;;;;;;5051064;28;20036;-67
2022/09/26 16:19:53;;;;;;;2.05;1.30;;;23.70;52.50;;;;;;5038736;28;20059;-67
2022/09/26 16:22:21;;;;;;;1.80;1.13;;;23.70;52.50;;;;;;5051011;28;20062;-68
2022/09/26 16:24:48;;;;;;;1.80;1.20;;;23.60;52.50;;;;;;5050938;28;20024;-67
2022/09/26 16:27:25;;;;;;;1.92;1.20;;;23.60;52.60;;;;;;5050944;28;20029;-67
2022/09/26 16:29:51;;;;;;;1.88;1.00;;;23.60;52.60;;;;;;5051010;28;20384;-68
2022/09/26 16:32:21;;;;;;;2.15;1.20;;;23.60;52.60;;;;;;5050129;28;20087;-66
2022/09/26 16:34:47;;;;;;;1.67;1.20;;;23.50;52.70;;;;;;5047744;28;20163;-67
2022/09/26 16:37:21;;;;;;;2.00;1.10;;;23.50;52.70;;;;;;5050681;28;20029;-67
2022/09/26 16:39:59;;;;;;;1.80;1.30;;;23.50;52.70;;;;;;5032414;28;20039;-67
2022/09/26 16:42:30;;;;;;;1.95;1.30;;;23.50;52.70;;;;;;5050171;28;20033;-67
2022/09/26 16:44:56;;;;;;;2.42;1.23;;;23.50;52.70;;;;;;5050655;28;20029;-67
2022/09/26 16:47:46;;;;;;;1.90;1.30;;;23.50;52.80;;;;;;5038024;28;20471;-67
2022/09/26 16:50:25;;;;;;;1.30;0.93;;;23.40;52.80;;;;;;5049587;28;20428;-67
2022/09/26 16:52:51;;;;;;;1.77;1.00;;;23.40;52.90;;;;;;5050396;28;20021;-66
2022/09/26 16:55:18;;;;;;;1.30;0.90;;;23.40;52.90;;;;;;5049653;28;20033;-68
2022/09/26 16:58:01;;;;;;;1.30;0.98;;;23.40;53.10;;;;;;5047992;28;20037;-68
2022/09/26 17:03:30;;;;;;;1.27;1.00;;;23.30;53.20;;;;;;5030637;28;20037;-67